createdAt,value
2022-08-02T00:00:10.962Z,5.93
2022-08-02T00:02:38.050Z,6.43
2022-08-02T00:05:05.811Z,5.75
2022-08-02T00:07:36.481Z,5.80
2022-08-02T00:10:08.541Z,5.45
2022-08-02T00:12:35.398Z,5.07
2022-08-02T00:15:02.511Z,5.10
2022-08-02T00:17:29.443Z,5.07
2022-08-02T00:19:56.384Z,4.85
2022-08-02T00:22:23.265Z,5.00
2022-08-02T00:24:50.259Z,4.82
2022-08-02T00:27:17.392Z,4.90
2022-08-02T00:29:53.135Z,4.40
2022-08-02T00:32:20.907Z,3.90
2022-08-02T00:34:48.039Z,4.00
2022-08-02T00:37:15.254Z,4.60
2022-08-02T00:39:43.145Z,4.28
2022-08-02T00:42:11.461Z,4.53
2022-08-02T00:44:38.602Z,4.30
2022-08-02T00:47:05.795Z,4.55
2022-08-02T00:49:33.229Z,4.15
2022-08-02T00:52:00.966Z,4.20
2022-08-02T00:54:28.592Z,4.45
2022-08-02T00:56:55.467Z,4.70
2022-08-02T00:59:22.481Z,4.43
2022-08-02T01:01:57.202Z,4.55
2022-08-02T01:04:31.461Z,4.68
2022-08-02T01:07:01.334Z,4.60
2022-08-02T01:09:28.524Z,4.63
2022-08-02T01:11:55.646Z,4.80
2022-08-02T01:14:24.961Z,4.47
2022-08-02T01:17:15.204Z,4.28
2022-08-02T01:19:59.521Z,4.57
2022-08-02T01:23:00.185Z,4.20
2022-08-02T01:25:50.492Z,4.75
2022-08-02T01:28:43.621Z,4.38
2022-08-02T01:31:14.297Z,4.25
2022-08-02T01:33:51.835Z,4.78
2022-08-02T01:36:21.876Z,4.47
2022-08-02T01:38:53.501Z,4.40
2022-08-02T01:41:24.339Z,4.28
2022-08-02T01:43:55.795Z,4.68
2022-08-02T01:46:24.440Z,4.78
2022-08-02T01:48:54.760Z,4.20
2022-08-02T01:51:42.278Z,4.47
2022-08-02T01:54:16.240Z,4.57
2022-08-02T01:56:44.883Z,4.40
2022-08-02T01:59:16.845Z,4.82
2022-08-02T02:01:46.809Z,4.90
2022-08-02T02:04:15.598Z,4.63
2022-08-02T02:06:45.265Z,4.32
2022-08-02T02:09:15.656Z,4.25
2022-08-02T02:12:06.469Z,4.32
2022-08-02T02:14:33.910Z,3.85
2022-08-02T02:17:02.527Z,4.50
2022-08-02T02:19:30.786Z,4.88
2022-08-02T02:21:57.987Z,4.55
2022-08-02T02:24:25.177Z,4.70
2022-08-02T02:26:52.802Z,4.97
2022-08-02T02:29:24.310Z,4.95
2022-08-02T02:31:54.139Z,5.40
2022-08-02T02:34:30.185Z,5.78
2022-08-02T02:37:00.621Z,6.25
2022-08-02T02:39:29.016Z,5.97
2022-08-02T02:41:59.868Z,6.88
2022-08-02T02:44:27.250Z,7.20
2022-08-02T02:46:55.505Z,7.22
2022-08-02T02:49:24.317Z,7.70
2022-08-02T02:51:53.294Z,6.93
2022-08-02T02:54:33.348Z,7.70
2022-08-02T02:57:04.522Z,8.23
2022-08-02T02:59:33.372Z,6.82
2022-08-02T03:02:01.748Z,7.10
2022-08-02T03:04:56.507Z,5.68
2022-08-02T03:07:19.280Z,5.35
2022-08-02T03:09:47.988Z,4.78
2022-08-02T03:12:30.803Z,4.90
2022-08-02T03:15:04.986Z,5.00
2022-08-02T03:17:46.170Z,5.00
2022-08-02T03:20:16.170Z,4.63
2022-08-02T03:22:45.160Z,4.82
2022-08-02T03:25:14.061Z,5.13
2022-08-02T03:27:41.561Z,4.90
2022-08-02T03:30:11.900Z,4.15
2022-08-02T03:32:40.795Z,4.72
2022-08-02T03:35:11.405Z,4.70
2022-08-02T03:37:39.170Z,4.95
2022-08-02T03:40:12.187Z,4.18
2022-08-02T03:42:40.661Z,3.88
2022-08-02T03:45:10.049Z,3.72
2022-08-02T03:47:39.768Z,3.78
2022-08-02T03:50:11.887Z,3.72
2022-08-02T03:52:41.638Z,3.50
2022-08-02T03:55:10.131Z,3.38
2022-08-02T03:57:42.268Z,4.03
2022-08-02T04:00:11.756Z,3.35
2022-08-02T04:02:38.900Z,3.35
2022-08-02T04:05:06.373Z,3.78
2022-08-02T04:08:32.822Z,3.88
2022-08-02T04:10:20.769Z,4.05
2022-08-02T04:12:48.008Z,3.75
2022-08-02T04:15:15.913Z,3.60
2022-08-02T04:17:54.733Z,2.88
2022-08-02T04:20:35.169Z,2.65
2022-08-02T04:23:07.953Z,2.10
2022-08-02T04:25:40.238Z,2.28
2022-08-02T04:28:17.407Z,1.83
2022-08-02T04:30:49.866Z,1.95
2022-08-02T04:33:17.400Z,1.90
2022-08-02T04:35:44.818Z,1.33
2022-08-02T04:38:15.318Z,1.80
2022-08-02T04:40:54.006Z,1.75
2022-08-02T04:43:21.631Z,1.98
2022-08-02T04:45:55.809Z,1.60
2022-08-02T04:48:23.807Z,1.55
2022-08-02T04:50:51.925Z,1.70
2022-08-02T04:53:19.083Z,1.60
2022-08-02T04:55:47.036Z,1.73
2022-08-02T04:58:38.764Z,1.80
2022-08-02T05:01:01.935Z,1.50
2022-08-02T05:03:29.260Z,2.13
2022-08-02T05:05:56.437Z,2.00
2022-08-02T05:08:23.699Z,1.90
2022-08-02T05:10:50.720Z,2.30
2022-08-02T05:13:17.776Z,2.53
2022-08-02T05:15:44.913Z,2.50
2022-08-02T05:18:12.515Z,2.60
2022-08-02T05:20:40.268Z,2.67
2022-08-02T05:23:08.358Z,2.10
2022-08-02T05:25:35.640Z,2.50
2022-08-02T05:28:02.907Z,2.30
2022-08-02T05:30:30.132Z,2.22
2022-08-02T05:32:57.368Z,2.22
2022-08-02T05:35:25.149Z,2.40
2022-08-02T05:37:53.886Z,2.50
2022-08-02T05:40:25.315Z,2.10
2022-08-02T05:42:53.699Z,2.00
2022-08-02T05:45:20.809Z,2.42
2022-08-02T05:47:48.130Z,2.00
2022-08-02T05:50:15.463Z,1.80
2022-08-02T05:53:00.230Z,2.10
2022-08-02T05:55:32.663Z,2.10
2022-08-02T05:58:06.371Z,2.10
2022-08-02T06:00:36.485Z,1.73
2022-08-02T06:03:09.395Z,2.42
2022-08-02T06:05:41.211Z,1.85
2022-08-02T06:08:10.393Z,1.80
2022-08-02T06:10:40.535Z,1.45
2022-08-02T06:13:07.424Z,1.27
2022-08-02T06:15:38.893Z,1.48
2022-08-02T06:18:08.452Z,1.10
2022-08-02T06:20:36.694Z,1.40
2022-08-02T06:23:06.780Z,1.23
2022-08-02T06:25:50.529Z,1.42
2022-08-02T10:11:20.850Z,1.23
2022-08-02T10:13:48.376Z,1.17
2022-08-02T10:16:17.212Z,1.10
2022-08-02T10:18:44.461Z,1.30
2022-08-02T10:21:19.909Z,1.20
2022-08-02T10:26:18.270Z,1.25
2022-08-02T10:28:50.081Z,1.45
2022-08-02T10:31:25.676Z,1.52
2022-08-02T10:33:55.132Z,1.40
2022-08-02T10:36:23.801Z,1.38
2022-08-02T10:38:51.052Z,1.27
2022-08-02T10:41:44.940Z,1.20
2022-08-02T10:44:30.924Z,1.30
2022-08-02T10:47:22.748Z,1.20
2022-08-02T10:49:54.439Z,1.25
2022-08-02T10:52:25.958Z,1.40
2022-08-02T10:55:00.782Z,1.50
2022-08-02T10:57:30.982Z,1.65
2022-08-02T11:00:01.040Z,1.58
2022-08-02T11:02:43.440Z,1.38
2022-08-02T11:05:19.399Z,1.40
2022-08-02T11:07:49.967Z,1.73
2022-08-02T11:10:41.206Z,1.50
2022-08-02T11:13:21.886Z,1.40
2022-08-02T11:15:53.097Z,1.35
2022-08-02T11:18:21.861Z,1.45
2022-08-02T11:21:28.137Z,1.52
2022-08-02T11:27:03.079Z,1.80
2022-08-02T11:29:41.056Z,1.40
2022-08-02T11:32:19.731Z,1.40
2022-08-02T11:34:48.473Z,1.40
2022-08-02T11:37:32.437Z,1.70
2022-08-02T11:39:59.406Z,1.40
2022-08-02T11:42:37.891Z,1.50
2022-08-02T11:45:10.877Z,1.70
2022-08-02T11:47:54.279Z,1.05
2022-08-02T11:50:29.682Z,1.38
2022-08-02T11:52:57.797Z,1.40
2022-08-02T11:55:30.093Z,1.58
2022-08-02T11:58:04.139Z,1.55
2022-08-02T12:00:32.175Z,1.73
2022-08-02T12:02:59.766Z,1.40
2022-08-02T12:05:44.761Z,1.40
2022-08-02T12:08:14.357Z,1.67
2022-08-02T12:10:50.228Z,1.60
2022-08-02T12:13:17.482Z,1.40
2022-08-02T12:15:47.367Z,1.20
2022-08-02T12:18:38.797Z,1.60
2022-08-02T12:21:23.174Z,1.58
2022-08-02T12:24:00.638Z,1.50
2022-08-02T12:26:30.429Z,1.40
2022-08-02T12:28:58.999Z,1.50
2022-08-02T12:31:56.912Z,1.52
2022-08-02T12:34:31.396Z,1.67
2022-08-02T12:37:12.767Z,1.80
2022-08-02T12:39:46.166Z,1.40
2022-08-02T12:42:15.845Z,2.00
2022-08-02T12:45:01.234Z,1.33
2022-08-02T12:47:31.317Z,1.30
2022-08-02T12:50:32.727Z,1.58
2022-08-02T12:56:01.956Z,1.70
2022-08-02T12:58:32.065Z,1.55
2022-08-02T13:01:01.974Z,1.50
2022-08-02T13:04:11.803Z,1.88
2022-08-02T13:06:42.941Z,1.38
2022-08-02T13:09:15.870Z,1.65
2022-08-02T13:11:43.981Z,1.40
2022-08-02T13:14:13.353Z,1.38
2022-08-02T13:16:41.381Z,1.80
2022-08-02T13:19:08.316Z,1.42
2022-08-02T13:21:41.195Z,1.95
2022-08-02T13:24:40.991Z,1.70
2022-08-02T13:27:10.153Z,1.30
2022-08-02T13:29:40.303Z,1.63
2022-08-02T13:32:07.493Z,2.00
2022-08-02T13:34:34.775Z,1.55
2022-08-02T13:37:02.010Z,1.55
2022-08-02T13:39:29.001Z,1.80
2022-08-02T13:41:56.107Z,1.60
2022-08-02T13:44:23.254Z,1.70
2022-08-02T13:46:50.152Z,1.85
2022-08-02T13:49:19.930Z,1.60
2022-08-02T13:51:48.427Z,2.08
2022-08-02T13:54:15.991Z,1.60
2022-08-02T13:56:43.195Z,1.70
2022-08-02T13:59:26.464Z,1.88
2022-08-02T14:01:59.189Z,1.98
2022-08-02T14:04:32.138Z,1.90
2022-08-02T14:06:59.298Z,1.90
2022-08-02T14:09:26.693Z,2.08
2022-08-02T14:11:53.868Z,1.83
2022-08-02T14:14:20.932Z,2.05
2022-08-02T14:16:48.273Z,1.90
2022-08-02T14:19:17.020Z,1.85
2022-08-02T14:21:48.665Z,1.98
2022-08-02T14:24:21.999Z,2.05
2022-08-02T14:26:49.357Z,2.10
2022-08-02T14:29:17.239Z,2.10
2022-08-02T14:31:45.280Z,2.10
2022-08-02T14:34:14.775Z,2.28
2022-08-02T14:36:42.114Z,2.10
2022-08-02T14:39:10.720Z,2.22
2022-08-02T14:41:59.838Z,1.70
2022-08-02T14:44:25.144Z,2.17
2022-08-02T14:46:53.130Z,1.85
2022-08-02T14:49:26.130Z,1.88
2022-08-02T14:51:57.748Z,1.85
2022-08-02T14:54:32.888Z,1.90
2022-08-02T14:57:02.224Z,2.00
2022-08-02T14:59:30.215Z,2.13
2022-08-02T15:01:58.079Z,1.65
2022-08-02T15:04:25.506Z,1.80
2022-08-02T15:06:52.822Z,1.67
2022-08-02T15:09:20.912Z,1.73
2022-08-02T15:11:49.248Z,2.17
2022-08-02T15:14:25.567Z,2.05
2022-08-02T15:16:58.102Z,2.00
2022-08-02T15:19:50.387Z,1.98
2022-08-02T15:22:19.185Z,2.17
2022-08-02T15:24:47.957Z,2.42
2022-08-02T15:27:17.055Z,2.50
2022-08-02T15:29:45.731Z,2.20
2022-08-02T15:32:13.506Z,2.05
2022-08-02T15:34:41.138Z,2.10
2022-08-02T15:37:08.283Z,2.30
2022-08-02T15:39:35.481Z,2.58
2022-08-02T15:42:03.151Z,2.00
2022-08-02T15:44:30.246Z,2.67
2022-08-02T15:46:57.784Z,2.13
2022-08-02T15:49:25.748Z,2.38
2022-08-02T15:51:54.058Z,2.13
2022-08-02T15:54:21.486Z,2.20
2022-08-02T15:56:49.346Z,2.58
2022-08-02T15:59:19.146Z,2.10
2022-08-02T16:01:48.270Z,2.10
2022-08-02T16:04:17.452Z,1.95
2022-08-02T16:06:45.198Z,1.90
2022-08-02T16:09:12.807Z,2.20
2022-08-02T16:11:40.252Z,2.38
2022-08-02T16:14:08.015Z,1.75
2022-08-02T16:16:36.531Z,1.85
2022-08-02T16:19:47.516Z,1.92
2022-08-02T16:21:53.509Z,2.00
2022-08-02T16:24:20.815Z,1.83
2022-08-02T16:26:48.205Z,1.90
2022-08-02T16:29:19.097Z,2.30
2022-08-02T16:31:48.093Z,2.05
2022-08-02T16:34:16.406Z,2.13
2022-08-02T16:36:44.372Z,1.95
2022-08-02T16:39:12.233Z,1.85
2022-08-02T16:41:51.900Z,2.03
2022-08-02T16:44:29.515Z,1.80
2022-08-02T16:47:00.902Z,2.10
2022-08-02T16:50:04.622Z,1.92
2022-08-02T16:52:18.776Z,2.15
2022-08-02T16:54:49.552Z,2.67
2022-08-02T17:00:06.055Z,2.65
2022-08-02T17:02:33.167Z,2.45
2022-08-02T17:05:05.418Z,2.35
2022-08-02T17:08:06.226Z,2.00
2022-08-02T17:10:27.829Z,2.13
2022-08-02T17:12:55.671Z,1.85
2022-08-02T17:16:01.618Z,2.10
2022-08-02T17:18:11.791Z,2.17
2022-08-02T17:20:39.434Z,1.95
2022-08-02T17:23:06.970Z,1.95
2022-08-02T17:25:37.582Z,2.40
2022-08-02T17:28:09.460Z,2.10
2022-08-02T17:30:37.047Z,2.30
2022-08-02T17:33:07.291Z,2.95
2022-08-02T17:35:43.755Z,2.33
2022-08-02T17:38:26.283Z,2.28
2022-08-02T17:40:55.537Z,2.17
2022-08-02T17:43:23.073Z,2.20
2022-08-02T17:46:00.931Z,2.00
2022-08-02T17:49:03.680Z,2.15
2022-08-02T17:54:21.491Z,2.13
2022-08-02T17:56:51.678Z,2.40
2022-08-02T17:59:31.096Z,2.22
2022-08-02T18:02:11.225Z,2.45
2022-08-02T18:04:39.546Z,2.40
2022-08-02T18:07:09.750Z,2.08
2022-08-02T18:09:43.387Z,2.13
2022-08-02T18:12:15.378Z,2.28
2022-08-02T18:14:49.184Z,2.40
2022-08-02T18:17:17.360Z,2.88
2022-08-02T18:19:54.019Z,2.50
2022-08-02T18:22:26.502Z,2.85
2022-08-02T18:25:00.461Z,2.35
2022-08-02T18:27:39.022Z,2.95
2022-08-02T18:30:09.013Z,2.60
2022-08-02T18:33:59.601Z,2.75
2022-08-02T18:35:29.455Z,3.35
2022-08-02T18:38:03.652Z,3.85
2022-08-02T18:40:31.932Z,3.80
2022-08-02T18:42:59.323Z,4.18
2022-08-02T18:46:05.845Z,3.92
2022-08-02T18:48:17.906Z,3.58
2022-08-02T18:50:46.976Z,4.10
2022-08-02T18:53:14.521Z,4.10
2022-08-02T18:56:03.249Z,3.90
2022-08-02T18:58:29.112Z,4.03
2022-08-02T19:00:56.511Z,3.97
2022-08-02T19:03:24.441Z,3.92
2022-08-02T19:05:54.019Z,3.95
2022-08-02T19:08:25.422Z,3.70
2022-08-02T19:11:09.030Z,3.45
2022-08-02T19:13:42.543Z,3.63
2022-08-02T19:16:11.894Z,4.05
2022-08-02T19:18:39.282Z,4.05
2022-08-02T19:21:07.509Z,3.83
2022-08-02T19:23:35.932Z,3.90
2022-08-02T19:26:03.953Z,3.85
2022-08-02T19:28:31.361Z,4.05
2022-08-02T19:30:58.693Z,4.63
2022-08-02T19:34:04.497Z,4.45
2022-08-02T19:36:13.773Z,4.88
2022-08-02T19:38:45.568Z,4.10
2022-08-02T19:41:16.554Z,3.90
2022-08-02T19:44:24.369Z,3.63
2022-08-02T19:46:31.735Z,4.40
2022-08-02T19:49:13.746Z,4.00
2022-08-02T19:51:50.010Z,4.10
2022-08-02T19:54:54.468Z,4.35
2022-08-02T19:57:13.817Z,4.50
2022-08-02T19:59:47.679Z,3.60
2022-08-02T20:02:18.513Z,3.55
2022-08-02T20:04:50.372Z,4.07
2022-08-02T20:10:11.245Z,4.90
2022-08-02T20:12:40.926Z,4.00
2022-08-02T20:15:15.149Z,4.50
2022-08-02T20:17:47.572Z,4.10
2022-08-02T20:20:17.131Z,4.88
2022-08-02T20:23:32.091Z,4.72
2022-08-02T20:25:54.548Z,4.32
2022-08-02T20:28:24.255Z,4.65
2022-08-02T20:30:51.654Z,4.90
2022-08-02T20:33:23.447Z,5.15
2022-08-02T20:35:53.290Z,5.10
2022-08-02T20:38:25.082Z,4.97
2022-08-02T20:40:55.305Z,4.93
2022-08-02T20:43:23.264Z,4.60
2022-08-02T20:46:00.751Z,5.90
2022-08-02T20:48:30.420Z,5.38
2022-08-02T20:50:58.714Z,5.25
2022-08-02T20:53:30.089Z,4.53
2022-08-02T20:55:57.847Z,5.63
2022-08-02T20:58:27.156Z,5.18
2022-08-02T21:00:59.419Z,4.82
2022-08-02T21:06:16.954Z,5.10
2022-08-02T21:08:46.220Z,5.32
2022-08-02T21:11:14.055Z,4.75
2022-08-02T21:13:46.972Z,5.47
2022-08-02T21:16:28.264Z,5.15
2022-08-02T21:18:59.795Z,5.05
2022-08-02T21:21:27.791Z,4.80
2022-08-02T21:23:55.220Z,5.05
2022-08-02T21:26:25.718Z,5.00
2022-08-02T21:28:56.043Z,5.50
2022-08-02T21:31:23.093Z,5.45
2022-08-02T21:33:57.936Z,5.30
2022-08-02T21:39:15.670Z,5.22
2022-08-02T21:44:30.153Z,6.07
2022-08-02T21:46:57.974Z,5.75
2022-08-02T21:50:09.593Z,5.30
2022-08-02T21:52:14.978Z,5.22
2022-08-02T21:54:45.470Z,5.07
2022-08-02T21:57:15.409Z,4.55
2022-08-02T21:59:46.776Z,3.95
2022-08-02T22:02:19.581Z,4.15
2022-08-02T22:04:47.760Z,4.20
2022-08-02T22:07:23.697Z,4.10
2022-08-02T22:09:52.649Z,3.47
2022-08-02T22:12:21.902Z,3.60
2022-08-02T22:14:55.504Z,3.15
2022-08-02T22:20:15.537Z,3.50
2022-08-02T22:22:45.748Z,3.85
2022-08-02T22:25:26.827Z,3.67
2022-08-02T22:28:37.186Z,3.60
2022-08-02T22:30:50.564Z,4.07
2022-08-02T22:33:42.418Z,3.20
2022-08-02T22:36:14.516Z,3.28
2022-08-02T22:38:44.467Z,3.40
2022-08-02T22:41:13.028Z,3.63
2022-08-02T22:43:41.103Z,3.30
2022-08-02T22:46:09.045Z,3.65
2022-08-02T22:48:40.216Z,3.20
2022-08-02T22:51:07.485Z,3.58
2022-08-02T22:53:36.148Z,3.13
2022-08-02T22:56:04.717Z,3.05
2022-08-02T22:58:32.717Z,3.58
2022-08-02T22:58:35.804Z,2.72
2022-08-02T22:59:05.371Z,4.38
2022-08-02T22:59:06.306Z,5.70
2022-08-02T22:59:11.781Z,5.57
2022-08-02T22:59:12.143Z,4.00
2022-08-02T23:01:00.073Z,3.17
2022-08-02T23:03:27.161Z,3.33
2022-08-02T23:05:54.513Z,3.30
2022-08-02T23:08:21.594Z,3.03
2022-08-02T23:10:48.945Z,3.20
2022-08-02T23:13:15.993Z,2.80
2022-08-02T23:16:01.969Z,3.30
2022-08-02T23:18:48.118Z,3.35
2022-08-02T23:21:46.256Z,3.70
2022-08-02T23:24:02.168Z,3.15
2022-08-02T23:26:29.275Z,3.90
2022-08-02T23:28:57.261Z,3.17
2022-08-02T23:31:45.871Z,3.50
2022-08-02T23:34:13.399Z,4.15
2022-08-02T23:36:40.747Z,3.22
2022-08-02T23:39:08.075Z,3.50
2022-08-02T23:41:35.376Z,3.53
2022-08-02T23:44:17.367Z,3.13
2022-08-02T23:46:45.514Z,3.33
2022-08-02T23:49:13.299Z,3.40
2022-08-02T23:51:40.395Z,3.53
2022-08-02T23:54:07.515Z,3.72
2022-08-02T23:56:34.490Z,3.30
2022-08-02T23:59:01.509Z,3.83
